Huvudsida
METAR-TAF:

METAR-TAF

Flygplatser :

Kuwaits internationella flygplats

Kuwait, Kuwait

latitud: 29-13N, longitud: 047-59E, höjd: 55 m

Aktuellt väderrapport

Denna rapport gjordes för 35 minuter sedan, klockan 14:00 UTC
Vind 9 kt från nord
Temperatur 24°C
Fuktighet 65%
Tryck 1018 hPa
Sikt 10 km eller mer
Få moln på en höjd av 4000 ft

METAR: OKBK 161400Z 36009KT 9999 FEW040 24/17 Q1018 NOSIG

Tid: 17:35 (14:35 UTC)

Väderprognos

Denna rapport gjordes för 3 timmar och 50 minuter sedan, klockan 10:45 UTC
Prognos gäller från 16 kl. 12 UTC till 17 kl. 18 UTC
Vind 8 kt från nord i byarna ända upp till 18 kt
Sikt: 7000 m
Spridda moln på en höjd av 4000 ft
Temporärt
från 16 kl. 21 UTC till 17 kl. 03 UTC
Vind 3 kt varierande vindriktning
Sikt: 2000 m
fuktdis

TAF: OKBK 161045Z 1612/1718 35008G18KT 7000 SCT040 TEMPO 1621/1703 VRB03KT 2000 BR

Aktuella väderrapporter och prognoser från 4000 flygplatser (METAR- och TAF-rapporter).

De tillgängliga stationerna syns som gula och röda prickar på kartan.

För musen över prickarna för att se namnen på stationerna.

Klicka sedan för att få väderrapporter och prognoser.

För att ändra kartan: Klicka på de gröna knapparna med ett svart kors på för att zooma in; den gröna knappen med ett streck på för att zooma ut; eller på de gröna pilarna för angränsande kartor.


METAR-TAF: